sensor_id;sensor_type;location;lat;lon;timestamp;pressure;altitude;pressure_sealevel;temperature;humidity
43878;BME280;29815;48.184;11.268;2022-09-19T00:02:02;95343.75;;;8.34;100.00
43878;BME280;29815;48.184;11.268;2022-09-19T00:04:32;95354.94;;;8.31;100.00
43878;BME280;29815;48.184;11.268;2022-09-19T00:07:02;95350.91;;;8.29;100.00
43878;BME280;29815;48.184;11.268;2022-09-19T00:09:34;95350.63;;;8.25;100.00
43878;BME280;29815;48.184;11.268;2022-09-19T00:12:03;95353.56;;;8.24;100.00
43878;BME280;29815;48.184;11.268;2022-09-19T00:14:34;95353.31;;;8.25;100.00
43878;BME280;29815;48.184;11.268;2022-09-19T00:17:07;95361.34;;;8.20;100.00
43878;BME280;29815;48.184;11.268;2022-09-19T00:19:37;95354.38;;;8.19;100.00
43878;BME280;29815;48.184;11.268;2022-09-19T00:22:07;95369.38;;;8.20;100.00
43878;BME280;29815;48.184;11.268;2022-09-19T00:24:38;95359.72;;;8.19;100.00
43878;BME280;29815;48.184;11.268;2022-09-19T00:27:17;95367.22;;;8.17;100.00
43878;BME280;29815;48.184;11.268;2022-09-19T00:29:49;95373.06;;;8.09;100.00
43878;BME280;29815;48.184;11.268;2022-09-19T00:32:20;95368.47;;;8.04;100.00
43878;BME280;29815;48.184;11.268;2022-09-19T00:34:51;95367.66;;;8.04;100.00
43878;BME280;29815;48.184;11.268;2022-09-19T00:37:23;95369.53;;;8.03;100.00
43878;BME280;29815;48.184;11.268;2022-09-19T00:39:54;95377.28;;;8.00;100.00
43878;BME280;29815;48.184;11.268;2022-09-19T00:42:25;95366.56;;;8.00;100.00
43878;BME280;29815;48.184;11.268;2022-09-19T00:45:00;95374.84;;;7.98;100.00
43878;BME280;29815;48.184;11.268;2022-09-19T00:47:36;95366.03;;;8.03;100.00
43878;BME280;29815;48.184;11.268;2022-09-19T00:50:14;95353.75;;;8.07;100.00
43878;BME280;29815;48.184;11.268;2022-09-19T00:52:51;95356.97;;;8.09;100.00
43878;BME280;29815;48.184;11.268;2022-09-19T00:55:24;95360.16;;;8.06;100.00
43878;BME280;29815;48.184;11.268;2022-09-19T00:58:02;95361.44;;;7.98;100.00
43878;BME280;29815;48.184;11.268;2022-09-19T01:00:34;95353.66;;;7.97;100.00
43878;BME280;29815;48.184;11.268;2022-09-19T01:03:06;95354.97;;;7.94;100.00
43878;BME280;29815;48.184;11.268;2022-09-19T01:05:47;95360.88;;;7.91;100.00
43878;BME280;29815;48.184;11.268;2022-09-19T01:08:42;95365.69;;;7.89;100.00
43878;BME280;29815;48.184;11.268;2022-09-19T01:11:48;95368.13;;;7.91;100.00
43878;BME280;29815;48.184;11.268;2022-09-19T01:14:39;95371.34;;;7.93;100.00
43878;BME280;29815;48.184;11.268;2022-09-19T01:17:25;95371.09;;;7.99;100.00
43878;BME280;29815;48.184;11.268;2022-09-19T01:20:53;95387.69;;;7.91;100.00
43878;BME280;29815;48.184;11.268;2022-09-19T01:24:21;95375.84;;;7.87;100.00
43878;BME280;29815;48.184;11.268;2022-09-19T01:28:11;95380.38;;;7.81;100.00
43878;BME280;29815;48.184;11.268;2022-09-19T01:30:58;95378.75;;;7.80;100.00
43878;BME280;29815;48.184;11.268;2022-09-19T01:33:53;95400.69;;;7.77;100.00
43878;BME280;29815;48.184;11.268;2022-09-19T01:36:35;95404.13;;;7.73;100.00
43878;BME280;29815;48.184;11.268;2022-09-19T01:39:09;95408.38;;;7.69;100.00
43878;BME280;29815;48.184;11.268;2022-09-19T01:41:49;95409.69;;;7.66;100.00
43878;BME280;29815;48.184;11.268;2022-09-19T01:44:24;95409.66;;;7.61;100.00
43878;BME280;29815;48.184;11.268;2022-09-19T01:47:07;95416.09;;;7.60;100.00
43878;BME280;29815;48.184;11.268;2022-09-19T01:49:50;95407.50;;;7.58;100.00
43878;BME280;29815;48.184;11.268;2022-09-19T01:52:38;95414.97;;;7.56;100.00
43878;BME280;29815;48.184;11.268;2022-09-19T01:55:26;95415.53;;;7.58;100.00
43878;BME280;29815;48.184;11.268;2022-09-19T01:58:06;95422.19;;;7.56;100.00
43878;BME280;29815;48.184;11.268;2022-09-19T02:00:44;95420.53;;;7.50;100.00
43878;BME280;29815;48.184;11.268;2022-09-19T02:03:28;95430.38;;;7.44;100.00
43878;BME280;29815;48.184;11.268;2022-09-19T02:06:08;95431.94;;;7.40;100.00
43878;BME280;29815;48.184;11.268;2022-09-19T02:08:47;95432.22;;;7.38;100.00
43878;BME280;29815;48.184;11.268;2022-09-19T02:11:36;95431.59;;;7.31;100.00
43878;BME280;29815;48.184;11.268;2022-09-19T02:14:11;95419.28;;;7.30;100.00
43878;BME280;29815;48.184;11.268;2022-09-19T02:16:55;95425.88;;;7.23;100.00
43878;BME280;29815;48.184;11.268;2022-09-19T02:19:35;95428.50;;;7.18;100.00
43878;BME280;29815;48.184;11.268;2022-09-19T02:22:12;95441.31;;;7.16;100.00
43878;BME280;29815;48.184;11.268;2022-09-19T02:24:45;95445.31;;;7.13;100.00
43878;BME280;29815;48.184;11.268;2022-09-19T02:27:20;95450.38;;;7.09;100.00
43878;BME280;29815;48.184;11.268;2022-09-19T02:29:56;95454.09;;;7.08;100.00
43878;BME280;29815;48.184;11.268;2022-09-19T02:32:34;95462.63;;;7.05;100.00
43878;BME280;29815;48.184;11.268;2022-09-19T02:35:05;95462.06;;;7.03;100.00
43878;BME280;29815;48.184;11.268;2022-09-19T02:37:43;95464.00;;;7.08;100.00
43878;BME280;29815;48.184;11.268;2022-09-19T02:40:22;95468.22;;;7.04;100.00
43878;BME280;29815;48.184;11.268;2022-09-19T02:43:00;95466.22;;;6.94;100.00
43878;BME280;29815;48.184;11.268;2022-09-19T02:45:39;95466.97;;;6.90;100.00
43878;BME280;29815;48.184;11.268;2022-09-19T02:48:20;95464.84;;;6.92;100.00
43878;BME280;29815;48.184;11.268;2022-09-19T02:51:03;95470.38;;;6.85;100.00
43878;BME280;29815;48.184;11.268;2022-09-19T02:53:39;95470.34;;;6.80;100.00
43878;BME280;29815;48.184;11.268;2022-09-19T02:56:16;95480.16;;;6.74;100.00
43878;BME280;29815;48.184;11.268;2022-09-19T02:58:53;95486.75;;;6.67;100.00
43878;BME280;29815;48.184;11.268;2022-09-19T03:01:42;95486.66;;;6.62;100.00
43878;BME280;29815;48.184;11.268;2022-09-19T03:04:22;95494.88;;;6.55;100.00
43878;BME280;29815;48.184;11.268;2022-09-19T03:07:03;95484.91;;;6.51;100.00
43878;BME280;29815;48.184;11.268;2022-09-19T03:09:50;95493.03;;;6.39;100.00
43878;BME280;29815;48.184;11.268;2022-09-19T03:12:29;95504.19;;;6.36;100.00
43878;BME280;29815;48.184;11.268;2022-09-19T03:15:07;95505.25;;;6.35;100.00
43878;BME280;29815;48.184;11.268;2022-09-19T03:17:45;95506.06;;;6.35;100.00
43878;BME280;29815;48.184;11.268;2022-09-19T03:20:22;95503.88;;;6.32;100.00
43878;BME280;29815;48.184;11.268;2022-09-19T03:22:53;95513.19;;;6.30;100.00
43878;BME280;29815;48.184;11.268;2022-09-19T03:25:23;95513.84;;;6.20;100.00
43878;BME280;29815;48.184;11.268;2022-09-19T03:27:55;95511.19;;;6.20;100.00
43878;BME280;29815;48.184;11.268;2022-09-19T03:30:25;95511.34;;;6.14;100.00
43878;BME280;29815;48.184;11.268;2022-09-19T03:32:54;95521.69;;;6.10;100.00
43878;BME280;29815;48.184;11.268;2022-09-19T03:35:25;95518.69;;;6.06;100.00
43878;BME280;29815;48.184;11.268;2022-09-19T03:37:55;95511.16;;;6.03;100.00
43878;BME280;29815;48.184;11.268;2022-09-19T03:40:25;95518.13;;;6.04;100.00
43878;BME280;29815;48.184;11.268;2022-09-19T03:42:55;95514.59;;;5.99;100.00
43878;BME280;29815;48.184;11.268;2022-09-19T03:45:26;95526.22;;;5.93;100.00
43878;BME280;29815;48.184;11.268;2022-09-19T03:47:56;95519.94;;;5.87;100.00
43878;BME280;29815;48.184;11.268;2022-09-19T03:50:29;95522.19;;;5.90;100.00
43878;BME280;29815;48.184;11.268;2022-09-19T03:53:06;95523.00;;;5.91;100.00
43878;BME280;29815;48.184;11.268;2022-09-19T03:55:37;95538.66;;;5.87;100.00
43878;BME280;29815;48.184;11.268;2022-09-19T03:58:12;95533.91;;;5.89;100.00
43878;BME280;29815;48.184;11.268;2022-09-19T04:00:42;95540.88;;;5.78;100.00
43878;BME280;29815;48.184;11.268;2022-09-19T04:03:13;95548.31;;;5.76;100.00
43878;BME280;29815;48.184;11.268;2022-09-19T04:05:44;95548.03;;;5.73;100.00
43878;BME280;29815;48.184;11.268;2022-09-19T04:08:14;95542.41;;;5.74;100.00
43878;BME280;29815;48.184;11.268;2022-09-19T04:10:43;95548.84;;;5.73;100.00
43878;BME280;29815;48.184;11.268;2022-09-19T04:13:14;95556.41;;;5.65;100.00
43878;BME280;29815;48.184;11.268;2022-09-19T04:15:45;95574.28;;;5.64;100.00
43878;BME280;29815;48.184;11.268;2022-09-19T04:18:16;95572.81;;;5.57;100.00
43878;BME280;29815;48.184;11.268;2022-09-19T04:20:48;95571.50;;;5.59;100.00
43878;BME280;29815;48.184;11.268;2022-09-19T04:23:26;95571.84;;;5.63;100.00
43878;BME280;29815;48.184;11.268;2022-09-19T04:26:21;95582.44;;;5.58;100.00
43878;BME280;29815;48.184;11.268;2022-09-19T04:28:53;95578.25;;;5.62;100.00
43878;BME280;29815;48.184;11.268;2022-09-19T04:31:24;95574.31;;;5.53;100.00
43878;BME280;29815;48.184;11.268;2022-09-19T04:33:56;95588.38;;;5.48;100.00
43878;BME280;29815;48.184;11.268;2022-09-19T04:36:27;95586.28;;;5.50;100.00
43878;BME280;29815;48.184;11.268;2022-09-19T04:39:01;95595.03;;;5.46;100.00
43878;BME280;29815;48.184;11.268;2022-09-19T04:41:36;95593.72;;;5.48;100.00
43878;BME280;29815;48.184;11.268;2022-09-19T04:44:06;95589.69;;;5.46;100.00
43878;BME280;29815;48.184;11.268;2022-09-19T04:47:02;95589.91;;;5.44;100.00
43878;BME280;29815;48.184;11.268;2022-09-19T04:49:34;95597.63;;;5.57;100.00
43878;BME280;29815;48.184;11.268;2022-09-19T04:52:10;95593.09;;;5.58;100.00
43878;BME280;29815;48.184;11.268;2022-09-19T04:54:45;95603.91;;;5.51;100.00
43878;BME280;29815;48.184;11.268;2022-09-19T04:57:16;95607.16;;;5.53;100.00
43878;BME280;29815;48.184;11.268;2022-09-19T04:59:46;95611.34;;;5.49;100.00
43878;BME280;29815;48.184;11.268;2022-09-19T05:02:19;95608.09;;;5.47;100.00
43878;BME280;29815;48.184;11.268;2022-09-19T05:04:51;95611.13;;;5.51;100.00
43878;BME280;29815;48.184;11.268;2022-09-19T05:07:21;95606.69;;;5.56;100.00
43878;BME280;29815;48.184;11.268;2022-09-19T05:09:56;95619.34;;;5.61;100.00
43878;BME280;29815;48.184;11.268;2022-09-19T05:12:33;95612.72;;;5.63;100.00
43878;BME280;29815;48.184;11.268;2022-09-19T05:15:03;95623.50;;;5.68;100.00
43878;BME280;29815;48.184;11.268;2022-09-19T05:17:33;95621.75;;;5.74;100.00
43878;BME280;29815;48.184;11.268;2022-09-19T05:20:06;95623.69;;;5.78;100.00
43878;BME280;29815;48.184;11.268;2022-09-19T05:22:37;95622.72;;;5.85;100.00
43878;BME280;29815;48.184;11.268;2022-09-19T05:25:09;95630.50;;;5.86;100.00
43878;BME280;29815;48.184;11.268;2022-09-19T05:27:42;95631.22;;;5.82;100.00
43878;BME280;29815;48.184;11.268;2022-09-19T05:30:12;95638.75;;;5.85;100.00
43878;BME280;29815;48.184;11.268;2022-09-19T05:32:42;95637.59;;;5.92;100.00
43878;BME280;29815;48.184;11.268;2022-09-19T05:35:31;95636.91;;;5.97;100.00
43878;BME280;29815;48.184;11.268;2022-09-19T05:38:17;95634.06;;;6.03;100.00
43878;BME280;29815;48.184;11.268;2022-09-19T05:41:19;95646.94;;;6.06;100.00
43878;BME280;29815;48.184;11.268;2022-09-19T05:43:54;95653.53;;;6.16;100.00
43878;BME280;29815;48.184;11.268;2022-09-19T05:46:25;95640.84;;;6.23;100.00
43878;BME280;29815;48.184;11.268;2022-09-19T05:48:58;95643.03;;;6.26;100.00
43878;BME280;29815;48.184;11.268;2022-09-19T05:51:28;95652.97;;;6.30;100.00
43878;BME280;29815;48.184;11.268;2022-09-19T05:54:00;95642.47;;;6.40;100.00
43878;BME280;29815;48.184;11.268;2022-09-19T05:56:45;95656.91;;;6.39;100.00
43878;BME280;29815;48.184;11.268;2022-09-19T05:59:21;95675.59;;;6.39;100.00
43878;BME280;29815;48.184;11.268;2022-09-19T06:01:50;95677.72;;;6.37;100.00
43878;BME280;29815;48.184;11.268;2022-09-19T06:04:43;95687.59;;;6.37;100.00
43878;BME280;29815;48.184;11.268;2022-09-19T06:07:15;95685.59;;;6.44;100.00
43878;BME280;29815;48.184;11.268;2022-09-19T06:09:49;95681.53;;;6.58;100.00
43878;BME280;29815;48.184;11.268;2022-09-19T06:12:21;95693.16;;;6.64;100.00
43878;BME280;29815;48.184;11.268;2022-09-19T06:14:53;95697.69;;;6.63;100.00
43878;BME280;29815;48.184;11.268;2022-09-19T06:17:29;95702.66;;;6.71;100.00
43878;BME280;29815;48.184;11.268;2022-09-19T06:20:12;95702.16;;;6.74;100.00
43878;BME280;29815;48.184;11.268;2022-09-19T06:22:48;95709.47;;;6.79;100.00
43878;BME280;29815;48.184;11.268;2022-09-19T06:25:24;95705.41;;;6.76;100.00
43878;BME280;29815;48.184;11.268;2022-09-19T06:28:01;95706.06;;;6.84;100.00
43878;BME280;29815;48.184;11.268;2022-09-19T06:30:37;95710.84;;;6.82;100.00
43878;BME280;29815;48.184;11.268;2022-09-19T06:33:17;95713.28;;;6.83;100.00
43878;BME280;29815;48.184;11.268;2022-09-19T06:35:56;95706.31;;;6.99;100.00
43878;BME280;29815;48.184;11.268;2022-09-19T06:38:28;95712.78;;;7.03;100.00
43878;BME280;29815;48.184;11.268;2022-09-19T06:41:13;95710.78;;;7.10;100.00
43878;BME280;29815;48.184;11.268;2022-09-19T06:44:22;95723.34;;;7.09;100.00
43878;BME280;29815;48.184;11.268;2022-09-19T06:47:05;95721.28;;;7.17;100.00
43878;BME280;29815;48.184;11.268;2022-09-19T06:49:44;95725.03;;;7.16;100.00
43878;BME280;29815;48.184;11.268;2022-09-19T06:52:38;95724.69;;;7.12;100.00
43878;BME280;29815;48.184;11.268;2022-09-19T06:55:15;95742.22;;;7.20;100.00
43878;BME280;29815;48.184;11.268;2022-09-19T06:57:57;95739.97;;;7.28;100.00
43878;BME280;29815;48.184;11.268;2022-09-19T07:00:31;95746.69;;;7.31;100.00
43878;BME280;29815;48.184;11.268;2022-09-19T07:03:08;95750.75;;;7.33;100.00
43878;BME280;29815;48.184;11.268;2022-09-19T07:05:44;95748.66;;;7.35;100.00
43878;BME280;29815;48.184;11.268;2022-09-19T07:08:23;95760.31;;;7.46;100.00
43878;BME280;29815;48.184;11.268;2022-09-19T07:10:56;95750.72;;;7.50;100.00
43878;BME280;29815;48.184;11.268;2022-09-19T07:13:29;95762.56;;;7.54;100.00
43878;BME280;29815;48.184;11.268;2022-09-19T07:16:05;95762.25;;;7.51;100.00
43878;BME280;29815;48.184;11.268;2022-09-19T07:18:39;95768.66;;;7.50;100.00
43878;BME280;29815;48.184;11.268;2022-09-19T07:21:29;95774.19;;;7.43;100.00
43878;BME280;29815;48.184;11.268;2022-09-19T07:24:01;95791.13;;;7.48;100.00
43878;BME280;29815;48.184;11.268;2022-09-19T07:26:57;95790.09;;;7.50;100.00
43878;BME280;29815;48.184;11.268;2022-09-19T07:29:30;95784.09;;;7.59;100.00
43878;BME280;29815;48.184;11.268;2022-09-19T07:32:01;95798.63;;;7.63;100.00
43878;BME280;29815;48.184;11.268;2022-09-19T07:34:32;95802.66;;;7.66;100.00
43878;BME280;29815;48.184;11.268;2022-09-19T07:37:03;95799.00;;;7.72;100.00
43878;BME280;29815;48.184;11.268;2022-09-19T07:39:33;95812.72;;;7.75;100.00
43878;BME280;29815;48.184;11.268;2022-09-19T07:42:41;95815.47;;;7.80;100.00
43878;BME280;29815;48.184;11.268;2022-09-19T07:45:29;95813.34;;;7.82;100.00
43878;BME280;29815;48.184;11.268;2022-09-19T07:48:31;95823.25;;;7.82;100.00
43878;BME280;29815;48.184;11.268;2022-09-19T07:51:18;95826.84;;;7.88;100.00
43878;BME280;29815;48.184;11.268;2022-09-19T07:53:52;95828.47;;;7.89;100.00
43878;BME280;29815;48.184;11.268;2022-09-19T07:56:21;95832.53;;;7.91;100.00
43878;BME280;29815;48.184;11.268;2022-09-19T07:58:51;95837.78;;;7.86;100.00
43878;BME280;29815;48.184;11.268;2022-09-19T08:01:22;95846.16;;;7.90;100.00
43878;BME280;29815;48.184;11.268;2022-09-19T08:04:11;95841.91;;;7.94;100.00
43878;BME280;29815;48.184;11.268;2022-09-19T08:06:46;95854.50;;;7.93;100.00
43878;BME280;29815;48.184;11.268;2022-09-19T08:09:18;95851.91;;;7.98;100.00
43878;BME280;29815;48.184;11.268;2022-09-19T08:12:03;95857.00;;;8.00;100.00
43878;BME280;29815;48.184;11.268;2022-09-19T08:14:38;95854.16;;;8.06;100.00
43878;BME280;29815;48.184;11.268;2022-09-19T08:17:10;95865.78;;;8.12;100.00
43878;BME280;29815;48.184;11.268;2022-09-19T08:19:41;95868.81;;;8.21;100.00
43878;BME280;29815;48.184;11.268;2022-09-19T08:22:13;95877.50;;;8.28;100.00
43878;BME280;29815;48.184;11.268;2022-09-19T08:25:01;95868.66;;;8.44;100.00
43878;BME280;29815;48.184;11.268;2022-09-19T08:27:31;95878.91;;;8.47;100.00
43878;BME280;29815;48.184;11.268;2022-09-19T08:30:00;95880.25;;;8.49;100.00
43878;BME280;29815;48.184;11.268;2022-09-19T08:32:33;95884.31;;;8.52;100.00
43878;BME280;29815;48.184;11.268;2022-09-19T08:35:04;95883.31;;;8.58;100.00
43878;BME280;29815;48.184;11.268;2022-09-19T08:37:34;95880.63;;;8.58;100.00
43878;BME280;29815;48.184;11.268;2022-09-19T08:40:05;95881.19;;;8.60;100.00
43878;BME280;29815;48.184;11.268;2022-09-19T08:43:02;95877.72;;;8.60;100.00
43878;BME280;29815;48.184;11.268;2022-09-19T08:46:07;95893.31;;;8.63;100.00
43878;BME280;29815;48.184;11.268;2022-09-19T08:48:52;95892.81;;;8.66;100.00
43878;BME280;29815;48.184;11.268;2022-09-19T08:51:28;95889.88;;;8.67;100.00
43878;BME280;29815;48.184;11.268;2022-09-19T08:54:16;95889.81;;;8.62;100.00
43878;BME280;29815;48.184;11.268;2022-09-19T08:56:48;95893.38;;;8.68;100.00
43878;BME280;29815;48.184;11.268;2022-09-19T08:59:22;95893.19;;;8.74;100.00
43878;BME280;29815;48.184;11.268;2022-09-19T09:02:00;95895.09;;;8.79;100.00
43878;BME280;29815;48.184;11.268;2022-09-19T09:05:02;95898.91;;;8.83;100.00
43878;BME280;29815;48.184;11.268;2022-09-19T09:07:42;95902.47;;;8.89;100.00
43878;BME280;29815;48.184;11.268;2022-09-19T09:10:52;95899.00;;;8.88;100.00
43878;BME280;29815;48.184;11.268;2022-09-19T09:13:42;95902.47;;;8.89;100.00
43878;BME280;29815;48.184;11.268;2022-09-19T09:16:42;95907.03;;;8.88;100.00
43878;BME280;29815;48.184;11.268;2022-09-19T09:19:50;95906.53;;;8.91;100.00
43878;BME280;29815;48.184;11.268;2022-09-19T09:22:41;95910.69;;;9.04;100.00
43878;BME280;29815;48.184;11.268;2022-09-19T09:25:49;95906.03;;;9.16;100.00
43878;BME280;29815;48.184;11.268;2022-09-19T09:28:38;95899.16;;;9.25;100.00
43878;BME280;29815;48.184;11.268;2022-09-19T09:31:28;95902.97;;;9.34;100.00
43878;BME280;29815;48.184;11.268;2022-09-19T09:34:30;95912.47;;;9.42;100.00
43878;BME280;29815;48.184;11.268;2022-09-19T09:37:12;95896.91;;;9.44;100.00
43878;BME280;29815;48.184;11.268;2022-09-19T09:39:58;95908.25;;;9.51;100.00
43878;BME280;29815;48.184;11.268;2022-09-19T09:42:49;95916.41;;;9.61;100.00
43878;BME280;29815;48.184;11.268;2022-09-19T09:45:32;95904.19;;;9.75;100.00
43878;BME280;29815;48.184;11.268;2022-09-19T09:48:11;95898.59;;;9.82;100.00
43878;BME280;29815;48.184;11.268;2022-09-19T09:50:58;95899.19;;;9.89;100.00
43878;BME280;29815;48.184;11.268;2022-09-19T09:53:50;95904.66;;;9.99;100.00
43878;BME280;29815;48.184;11.268;2022-09-19T09:56:35;95899.63;;;10.08;100.00
43878;BME280;29815;48.184;11.268;2022-09-19T09:59:23;95901.06;;;10.21;100.00
43878;BME280;29815;48.184;11.268;2022-09-19T10:02:29;95904.38;;;10.33;100.00
43878;BME280;29815;48.184;11.268;2022-09-19T10:05:32;95894.19;;;10.35;100.00
43878;BME280;29815;48.184;11.268;2022-09-19T10:08:16;95906.56;;;10.41;100.00
43878;BME280;29815;48.184;11.268;2022-09-19T10:11:03;95902.63;;;10.54;100.00
43878;BME280;29815;48.184;11.268;2022-09-19T10:13:58;95900.81;;;10.64;100.00
43878;BME280;29815;48.184;11.268;2022-09-19T10:16:33;95912.94;;;10.72;100.00
43878;BME280;29815;48.184;11.268;2022-09-19T10:19:20;95908.38;;;10.77;100.00
43878;BME280;29815;48.184;11.268;2022-09-19T10:21:55;95901.16;;;10.83;100.00
43878;BME280;29815;48.184;11.268;2022-09-19T10:24:46;95908.69;;;10.81;100.00
43878;BME280;29815;48.184;11.268;2022-09-19T10:27:25;95912.25;;;10.97;100.00
43878;BME280;29815;48.184;11.268;2022-09-19T10:30:00;95906.06;;;11.01;100.00
43878;BME280;29815;48.184;11.268;2022-09-19T10:32:33;95906.09;;;11.06;100.00
43878;BME280;29815;48.184;11.268;2022-09-19T10:35:25;95904.22;;;11.12;100.00
43878;BME280;29815;48.184;11.268;2022-09-19T10:38:01;95907.75;;;11.17;100.00
43878;BME280;29815;48.184;11.268;2022-09-19T10:40:32;95904.81;;;11.29;100.00
43878;BME280;29815;48.184;11.268;2022-09-19T10:43:03;95896.22;;;11.37;100.00
43878;BME280;29815;48.184;11.268;2022-09-19T10:45:35;95892.47;;;11.53;100.00
43878;BME280;29815;48.184;11.268;2022-09-19T10:48:15;95897.38;;;11.82;100.00
43878;BME280;29815;48.184;11.268;2022-09-19T10:50:48;95890.94;;;12.03;100.00
43878;BME280;29815;48.184;11.268;2022-09-19T10:53:27;95891.72;;;12.14;100.00
43878;BME280;29815;48.184;11.268;2022-09-19T10:56:03;95891.94;;;12.38;100.00
43878;BME280;29815;48.184;11.268;2022-09-19T10:58:38;95891.63;;;12.60;100.00
43878;BME280;29815;48.184;11.268;2022-09-19T11:01:22;95896.78;;;12.56;100.00
43878;BME280;29815;48.184;11.268;2022-09-19T11:04:00;95891.94;;;12.53;100.00
43878;BME280;29815;48.184;11.268;2022-09-19T11:06:32;95901.41;;;12.45;100.00
43878;BME280;29815;48.184;11.268;2022-09-19T11:09:23;95898.44;;;12.42;100.00
43878;BME280;29815;48.184;11.268;2022-09-19T11:12:03;95904.91;;;12.36;100.00
43878;BME280;29815;48.184;11.268;2022-09-19T11:14:42;95898.97;;;12.44;100.00
43878;BME280;29815;48.184;11.268;2022-09-19T11:18:00;95901.91;;;12.58;100.00
43878;BME280;29815;48.184;11.268;2022-09-19T11:20:54;95899.22;;;12.52;100.00
43878;BME280;29815;48.184;11.268;2022-09-19T11:23:57;95908.69;;;12.50;100.00
43878;BME280;29815;48.184;11.268;2022-09-19T11:26:43;95897.09;;;12.34;100.00
43878;BME280;29815;48.184;11.268;2022-09-19T11:29:47;95906.28;;;12.28;100.00
43878;BME280;29815;48.184;11.268;2022-09-19T11:32:53;95892.25;;;12.21;100.00
43878;BME280;29815;48.184;11.268;2022-09-19T11:36:19;95896.56;;;12.12;100.00
43878;BME280;29815;48.184;11.268;2022-09-19T11:38:55;95899.03;;;12.03;100.00
43878;BME280;29815;48.184;11.268;2022-09-19T11:42:04;95893.63;;;12.03;100.00
43878;BME280;29815;48.184;11.268;2022-09-19T11:45:07;95884.16;;;12.21;100.00
43878;BME280;29815;48.184;11.268;2022-09-19T11:48:13;95891.06;;;12.68;100.00
43878;BME280;29815;48.184;11.268;2022-09-19T11:51:11;95883.34;;;13.15;100.00
43878;BME280;29815;48.184;11.268;2022-09-19T11:54:32;95880.50;;;13.46;100.00
43878;BME280;29815;48.184;11.268;2022-09-19T11:57:28;95882.22;;;13.27;100.00
43878;BME280;29815;48.184;11.268;2022-09-19T12:00:16;95883.97;;;12.92;100.00
43878;BME280;29815;48.184;11.268;2022-09-19T12:03:34;95874.03;;;12.77;100.00
43878;BME280;29815;48.184;11.268;2022-09-19T12:06:43;95877.84;;;12.66;100.00
43878;BME280;29815;48.184;11.268;2022-09-19T12:09:35;95867.00;;;12.81;100.00
43878;BME280;29815;48.184;11.268;2022-09-19T12:12:11;95871.91;;;12.64;100.00
43878;BME280;29815;48.184;11.268;2022-09-19T12:15:17;95876.75;;;12.72;100.00
43878;BME280;29815;48.184;11.268;2022-09-19T12:17:58;95860.84;;;12.66;100.00
43878;BME280;29815;48.184;11.268;2022-09-19T12:20:39;95869.53;;;12.58;100.00
43878;BME280;29815;48.184;11.268;2022-09-19T12:23:17;95862.47;;;12.62;100.00
43878;BME280;29815;48.184;11.268;2022-09-19T12:26:18;95852.00;;;12.45;100.00
43878;BME280;29815;48.184;11.268;2022-09-19T12:28:55;95854.69;;;12.40;100.00
43878;BME280;29815;48.184;11.268;2022-09-19T12:31:35;95853.63;;;12.46;100.00
43878;BME280;29815;48.184;11.268;2022-09-19T12:34:14;95855.22;;;12.47;100.00
43878;BME280;29815;48.184;11.268;2022-09-19T12:37:04;95856.84;;;12.58;100.00
43878;BME280;29815;48.184;11.268;2022-09-19T12:39:47;95849.47;;;12.74;100.00
43878;BME280;29815;48.184;11.268;2022-09-19T12:42:25;95835.97;;;12.69;100.00
43878;BME280;29815;48.184;11.268;2022-09-19T12:45:09;95843.28;;;12.68;100.00
43878;BME280;29815;48.184;11.268;2022-09-19T12:48:11;95833.28;;;12.69;100.00
43878;BME280;29815;48.184;11.268;2022-09-19T12:51:14;95834.91;;;12.70;100.00
43878;BME280;29815;48.184;11.268;2022-09-19T12:54:02;95843.56;;;12.62;100.00
43878;BME280;29815;48.184;11.268;2022-09-19T12:56:43;95831.72;;;12.52;100.00
43878;BME280;29815;48.184;11.268;2022-09-19T12:59:21;95839.84;;;12.37;100.00
43878;BME280;29815;48.184;11.268;2022-09-19T13:01:54;95848.53;;;12.29;100.00
43878;BME280;29815;48.184;11.268;2022-09-19T13:04:33;95846.13;;;12.17;100.00
43878;BME280;29815;48.184;11.268;2022-09-19T13:07:11;95839.09;;;12.11;100.00
43878;BME280;29815;48.184;11.268;2022-09-19T13:09:55;95844.22;;;12.08;100.00
43878;BME280;29815;48.184;11.268;2022-09-19T13:12:38;95841.84;;;12.01;100.00
43878;BME280;29815;48.184;11.268;2022-09-19T13:15:21;95839.13;;;11.96;100.00
43878;BME280;29815;48.184;11.268;2022-09-19T13:17:57;95845.06;;;11.83;100.00
43878;BME280;29815;48.184;11.268;2022-09-19T13:20:48;95849.38;;;11.84;100.00
43878;BME280;29815;48.184;11.268;2022-09-19T13:23:37;95845.31;;;11.76;100.00
43878;BME280;29815;48.184;11.268;2022-09-19T13:26:22;95845.84;;;11.73;100.00
43878;BME280;29815;48.184;11.268;2022-09-19T13:28:57;95851.78;;;11.75;100.00
43878;BME280;29815;48.184;11.268;2022-09-19T13:31:33;95841.81;;;11.76;100.00
43878;BME280;29815;48.184;11.268;2022-09-19T13:34:39;95842.09;;;11.74;100.00
43878;BME280;29815;48.184;11.268;2022-09-19T13:40:39;95849.09;;;11.80;100.00
43878;BME280;29815;48.184;11.268;2022-09-19T13:43:35;95844.00;;;11.89;100.00
43878;BME280;29815;48.184;11.268;2022-09-19T13:46:17;95849.91;;;11.96;100.00
43878;BME280;29815;48.184;11.268;2022-09-19T13:48:53;95845.56;;;12.10;100.00
43878;BME280;29815;48.184;11.268;2022-09-19T13:51:36;95841.13;;;12.65;100.00
43878;BME280;29815;48.184;11.268;2022-09-19T13:54:31;95843.97;;;12.99;100.00
43878;BME280;29815;48.184;11.268;2022-09-19T13:57:15;95843.03;;;13.29;100.00
43878;BME280;29815;48.184;11.268;2022-09-19T13:59:50;95842.47;;;13.32;100.00
43878;BME280;29815;48.184;11.268;2022-09-19T14:02:27;95842.81;;;13.60;100.00
43878;BME280;29815;48.184;11.268;2022-09-19T14:05:04;95845.00;;;13.92;100.00